sensor_id;sensor_type;location;lat;lon;timestamp;P1;durP1;ratioP1;P2;durP2;ratioP2
44512;SDS011;30219;50.588;9.504;2022-07-29T00:01:47;9.98;;;1.58;;
44512;SDS011;30219;50.588;9.504;2022-07-29T00:04:13;6.35;;;1.83;;
44512;SDS011;30219;50.588;9.504;2022-07-29T00:06:39;4.28;;;1.30;;
44512;SDS011;30219;50.588;9.504;2022-07-29T00:09:04;3.70;;;1.13;;
44512;SDS011;30219;50.588;9.504;2022-07-29T00:11:30;7.93;;;1.60;;
44512;SDS011;30219;50.588;9.504;2022-07-29T00:13:55;3.30;;;1.20;;
44512;SDS011;30219;50.588;9.504;2022-07-29T00:16:21;5.30;;;1.70;;
44512;SDS011;30219;50.588;9.504;2022-07-29T00:18:47;2.50;;;1.08;;
44512;SDS011;30219;50.588;9.504;2022-07-29T00:21:13;5.28;;;1.35;;
44512;SDS011;30219;50.588;9.504;2022-07-29T00:23:39;3.63;;;1.42;;
44512;SDS011;30219;50.588;9.504;2022-07-29T00:26:04;4.35;;;1.38;;
44512;SDS011;30219;50.588;9.504;2022-07-29T00:28:30;7.40;;;1.33;;
44512;SDS011;30219;50.588;9.504;2022-07-29T00:30:55;8.85;;;1.60;;
44512;SDS011;30219;50.588;9.504;2022-07-29T00:33:21;7.90;;;1.40;;
44512;SDS011;30219;50.588;9.504;2022-07-29T00:35:48;5.47;;;1.35;;
44512;SDS011;30219;50.588;9.504;2022-07-29T00:38:15;4.45;;;1.73;;
44512;SDS011;30219;50.588;9.504;2022-07-29T00:40:45;6.45;;;1.95;;
44512;SDS011;30219;50.588;9.504;2022-07-29T00:43:12;6.82;;;1.60;;
44512;SDS011;30219;50.588;9.504;2022-07-29T00:45:39;7.65;;;1.20;;
44512;SDS011;30219;50.588;9.504;2022-07-29T00:48:05;7.45;;;1.60;;
44512;SDS011;30219;50.588;9.504;2022-07-29T00:50:33;6.60;;;1.45;;
44512;SDS011;30219;50.588;9.504;2022-07-29T00:53:00;7.13;;;1.45;;
44512;SDS011;30219;50.588;9.504;2022-07-29T00:55:27;7.45;;;1.50;;
44512;SDS011;30219;50.588;9.504;2022-07-29T00:57:53;6.68;;;1.70;;
44512;SDS011;30219;50.588;9.504;2022-07-29T01:00:22;5.57;;;1.35;;
44512;SDS011;30219;50.588;9.504;2022-07-29T01:02:49;6.97;;;1.65;;
44512;SDS011;30219;50.588;9.504;2022-07-29T01:05:19;3.15;;;1.20;;
44512;SDS011;30219;50.588;9.504;2022-07-29T01:07:46;4.50;;;2.25;;
44512;SDS011;30219;50.588;9.504;2022-07-29T01:10:16;4.18;;;1.30;;
44512;SDS011;30219;50.588;9.504;2022-07-29T01:12:44;5.45;;;1.38;;
44512;SDS011;30219;50.588;9.504;2022-07-29T01:15:11;9.27;;;1.60;;
44512;SDS011;30219;50.588;9.504;2022-07-29T01:20:13;3.58;;;1.30;;
44512;SDS011;30219;50.588;9.504;2022-07-29T01:25:50;5.78;;;1.63;;
44512;SDS011;30219;50.588;9.504;2022-07-29T01:31:13;8.27;;;1.63;;
44512;SDS011;30219;50.588;9.504;2022-07-29T01:33:45;8.77;;;1.90;;
44512;SDS011;30219;50.588;9.504;2022-07-29T01:36:22;3.65;;;1.42;;
44512;SDS011;30219;50.588;9.504;2022-07-29T01:38:58;6.60;;;1.73;;
44512;SDS011;30219;50.588;9.504;2022-07-29T01:41:31;6.20;;;1.65;;
44512;SDS011;30219;50.588;9.504;2022-07-29T01:44:01;8.23;;;1.80;;
44512;SDS011;30219;50.588;9.504;2022-07-29T01:46:35;5.40;;;1.65;;
44512;SDS011;30219;50.588;9.504;2022-07-29T01:49:14;7.88;;;1.30;;
44512;SDS011;30219;50.588;9.504;2022-07-29T01:54:19;6.53;;;1.63;;
44512;SDS011;30219;50.588;9.504;2022-07-29T01:56:59;8.10;;;1.65;;
44512;SDS011;30219;50.588;9.504;2022-07-29T01:59:25;6.35;;;1.42;;
44512;SDS011;30219;50.588;9.504;2022-07-29T02:01:53;7.38;;;1.70;;
44512;SDS011;30219;50.588;9.504;2022-07-29T02:04:20;7.43;;;1.70;;
44512;SDS011;30219;50.588;9.504;2022-07-29T02:06:49;4.88;;;1.30;;
44512;SDS011;30219;50.588;9.504;2022-07-29T02:09:17;4.90;;;1.60;;
44512;SDS011;30219;50.588;9.504;2022-07-29T02:11:47;4.70;;;1.70;;
44512;SDS011;30219;50.588;9.504;2022-07-29T02:14:15;5.95;;;1.35;;
44512;SDS011;30219;50.588;9.504;2022-07-29T02:16:46;5.65;;;1.48;;
44512;SDS011;30219;50.588;9.504;2022-07-29T02:19:14;7.50;;;1.42;;
44512;SDS011;30219;50.588;9.504;2022-07-29T02:21:43;6.55;;;1.60;;
44512;SDS011;30219;50.588;9.504;2022-07-29T02:24:09;4.57;;;1.63;;
44512;SDS011;30219;50.588;9.504;2022-07-29T02:26:36;7.60;;;1.80;;
44512;SDS011;30219;50.588;9.504;2022-07-29T02:29:04;11.50;;;1.83;;
44512;SDS011;30219;50.588;9.504;2022-07-29T02:31:32;2.72;;;1.30;;
44512;SDS011;30219;50.588;9.504;2022-07-29T02:33:59;6.38;;;1.45;;
44512;SDS011;30219;50.588;9.504;2022-07-29T02:36:31;7.50;;;1.40;;
44512;SDS011;30219;50.588;9.504;2022-07-29T02:38:58;5.13;;;1.30;;
44512;SDS011;30219;50.588;9.504;2022-07-29T02:41:29;5.55;;;1.77;;
44512;SDS011;30219;50.588;9.504;2022-07-29T02:44:09;6.30;;;1.40;;
44512;SDS011;30219;50.588;9.504;2022-07-29T02:46:44;6.13;;;1.67;;
44512;SDS011;30219;50.588;9.504;2022-07-29T02:49:35;4.50;;;1.33;;
44512;SDS011;30219;50.588;9.504;2022-07-29T02:52:12;4.05;;;1.50;;
44512;SDS011;30219;50.588;9.504;2022-07-29T02:57:41;11.80;;;1.98;;
44512;SDS011;30219;50.588;9.504;2022-07-29T03:00:11;4.60;;;1.40;;
44512;SDS011;30219;50.588;9.504;2022-07-29T03:02:42;6.03;;;1.60;;
44512;SDS011;30219;50.588;9.504;2022-07-29T03:05:11;3.88;;;1.73;;
44512;SDS011;30219;50.588;9.504;2022-07-29T03:07:43;7.07;;;1.58;;
44512;SDS011;30219;50.588;9.504;2022-07-29T03:10:12;4.05;;;1.60;;
44512;SDS011;30219;50.588;9.504;2022-07-29T03:12:38;4.60;;;1.48;;
44512;SDS011;30219;50.588;9.504;2022-07-29T03:15:05;5.88;;;1.92;;
44512;SDS011;30219;50.588;9.504;2022-07-29T03:17:31;5.90;;;1.77;;
44512;SDS011;30219;50.588;9.504;2022-07-29T03:19:57;6.53;;;1.80;;
44512;SDS011;30219;50.588;9.504;2022-07-29T03:22:24;5.70;;;1.50;;
44512;SDS011;30219;50.588;9.504;2022-07-29T03:24:50;6.82;;;2.08;;
44512;SDS011;30219;50.588;9.504;2022-07-29T03:27:15;4.75;;;2.22;;
44512;SDS011;30219;50.588;9.504;2022-07-29T03:29:41;8.10;;;1.90;;
44512;SDS011;30219;50.588;9.504;2022-07-29T03:32:07;10.77;;;2.17;;
44512;SDS011;30219;50.588;9.504;2022-07-29T03:34:32;7.05;;;2.28;;
44512;SDS011;30219;50.588;9.504;2022-07-29T03:36:58;10.07;;;2.40;;
44512;SDS011;30219;50.588;9.504;2022-07-29T03:39:24;7.40;;;2.58;;
44512;SDS011;30219;50.588;9.504;2022-07-29T03:41:53;12.88;;;3.08;;
44512;SDS011;30219;50.588;9.504;2022-07-29T03:44:21;12.45;;;3.00;;
44512;SDS011;30219;50.588;9.504;2022-07-29T03:46:48;6.82;;;2.65;;
44512;SDS011;30219;50.588;9.504;2022-07-29T03:49:16;12.98;;;3.80;;
44512;SDS011;30219;50.588;9.504;2022-07-29T03:51:44;7.35;;;3.20;;
44512;SDS011;30219;50.588;9.504;2022-07-29T03:54:10;15.68;;;3.50;;
44512;SDS011;30219;50.588;9.504;2022-07-29T03:56:38;9.45;;;2.92;;
44512;SDS011;30219;50.588;9.504;2022-07-29T03:59:06;11.38;;;3.30;;
44512;SDS011;30219;50.588;9.504;2022-07-29T04:01:33;13.35;;;5.15;;
44512;SDS011;30219;50.588;9.504;2022-07-29T04:04:00;11.05;;;4.63;;
44512;SDS011;30219;50.588;9.504;2022-07-29T04:06:26;16.00;;;4.85;;
44512;SDS011;30219;50.588;9.504;2022-07-29T04:08:52;9.43;;;4.13;;
44512;SDS011;30219;50.588;9.504;2022-07-29T04:11:18;15.60;;;4.47;;
44512;SDS011;30219;50.588;9.504;2022-07-29T04:13:44;12.38;;;4.20;;
44512;SDS011;30219;50.588;9.504;2022-07-29T04:16:09;10.88;;;4.05;;
44512;SDS011;30219;50.588;9.504;2022-07-29T04:18:35;12.07;;;4.07;;
44512;SDS011;30219;50.588;9.504;2022-07-29T04:21:00;10.13;;;3.65;;
44512;SDS011;30219;50.588;9.504;2022-07-29T04:23:27;9.38;;;3.47;;
44512;SDS011;30219;50.588;9.504;2022-07-29T04:25:57;11.85;;;3.15;;
44512;SDS011;30219;50.588;9.504;2022-07-29T04:28:22;6.18;;;2.92;;
44512;SDS011;30219;50.588;9.504;2022-07-29T04:30:48;11.63;;;3.53;;
44512;SDS011;30219;50.588;9.504;2022-07-29T04:33:13;7.28;;;3.10;;
44512;SDS011;30219;50.588;9.504;2022-07-29T04:35:39;8.85;;;2.97;;
44512;SDS011;30219;50.588;9.504;2022-07-29T04:38:05;8.48;;;3.67;;
44512;SDS011;30219;50.588;9.504;2022-07-29T04:40:32;6.97;;;2.72;;
44512;SDS011;30219;50.588;9.504;2022-07-29T04:42:59;8.75;;;2.75;;
44512;SDS011;30219;50.588;9.504;2022-07-29T04:45:25;9.50;;;2.80;;
44512;SDS011;30219;50.588;9.504;2022-07-29T04:47:51;10.52;;;2.92;;
44512;SDS011;30219;50.588;9.504;2022-07-29T04:50:17;6.85;;;2.75;;
44512;SDS011;30219;50.588;9.504;2022-07-29T04:52:43;6.20;;;2.30;;
44512;SDS011;30219;50.588;9.504;2022-07-29T04:55:08;10.25;;;2.85;;
44512;SDS011;30219;50.588;9.504;2022-07-29T04:57:34;9.20;;;2.88;;
44512;SDS011;30219;50.588;9.504;2022-07-29T05:00:00;5.75;;;2.20;;
44512;SDS011;30219;50.588;9.504;2022-07-29T05:02:26;6.47;;;2.20;;
44512;SDS011;30219;50.588;9.504;2022-07-29T05:04:51;6.30;;;2.10;;
44512;SDS011;30219;50.588;9.504;2022-07-29T05:07:17;9.18;;;2.67;;
44512;SDS011;30219;50.588;9.504;2022-07-29T05:09:42;3.85;;;1.60;;
44512;SDS011;30219;50.588;9.504;2022-07-29T05:12:08;7.05;;;2.35;;
44512;SDS011;30219;50.588;9.504;2022-07-29T05:14:34;8.93;;;2.58;;
44512;SDS011;30219;50.588;9.504;2022-07-29T05:17:00;8.18;;;1.98;;
44512;SDS011;30219;50.588;9.504;2022-07-29T05:19:25;6.18;;;1.60;;
44512;SDS011;30219;50.588;9.504;2022-07-29T05:21:51;5.97;;;1.75;;
44512;SDS011;30219;50.588;9.504;2022-07-29T05:24:17;9.30;;;2.10;;
44512;SDS011;30219;50.588;9.504;2022-07-29T05:26:42;5.97;;;1.55;;
44512;SDS011;30219;50.588;9.504;2022-07-29T05:29:08;4.63;;;1.50;;
44512;SDS011;30219;50.588;9.504;2022-07-29T05:31:33;7.10;;;2.13;;
44512;SDS011;30219;50.588;9.504;2022-07-29T05:33:59;5.90;;;1.70;;
44512;SDS011;30219;50.588;9.504;2022-07-29T05:36:25;5.97;;;1.60;;
44512;SDS011;30219;50.588;9.504;2022-07-29T05:38:51;9.45;;;2.00;;
44512;SDS011;30219;50.588;9.504;2022-07-29T05:41:17;4.57;;;1.83;;
44512;SDS011;30219;50.588;9.504;2022-07-29T05:43:43;5.65;;;1.92;;
44512;SDS011;30219;50.588;9.504;2022-07-29T05:46:09;5.50;;;1.90;;
44512;SDS011;30219;50.588;9.504;2022-07-29T05:48:34;5.70;;;1.70;;
44512;SDS011;30219;50.588;9.504;2022-07-29T05:51:00;5.95;;;1.60;;
44512;SDS011;30219;50.588;9.504;2022-07-29T05:53:26;5.82;;;1.60;;
44512;SDS011;30219;50.588;9.504;2022-07-29T05:55:52;6.93;;;2.20;;
44512;SDS011;30219;50.588;9.504;2022-07-29T05:58:18;7.10;;;1.77;;
44512;SDS011;30219;50.588;9.504;2022-07-29T06:00:43;5.72;;;1.65;;
44512;SDS011;30219;50.588;9.504;2022-07-29T06:03:09;5.38;;;1.65;;
44512;SDS011;30219;50.588;9.504;2022-07-29T06:05:35;3.53;;;1.52;;
44512;SDS011;30219;50.588;9.504;2022-07-29T06:08:01;7.88;;;2.33;;
44512;SDS011;30219;50.588;9.504;2022-07-29T06:10:26;4.47;;;1.40;;
44512;SDS011;30219;50.588;9.504;2022-07-29T06:12:52;6.03;;;1.35;;
44512;SDS011;30219;50.588;9.504;2022-07-29T06:15:18;5.07;;;1.50;;
44512;SDS011;30219;50.588;9.504;2022-07-29T06:17:44;4.68;;;1.63;;
44512;SDS011;30219;50.588;9.504;2022-07-29T06:20:10;7.38;;;1.70;;
44512;SDS011;30219;50.588;9.504;2022-07-29T06:22:35;6.45;;;1.65;;
44512;SDS011;30219;50.588;9.504;2022-07-29T06:25:01;6.95;;;1.55;;
44512;SDS011;30219;50.588;9.504;2022-07-29T06:27:28;4.63;;;1.45;;
44512;SDS011;30219;50.588;9.504;2022-07-29T06:29:54;9.38;;;1.67;;
44512;SDS011;30219;50.588;9.504;2022-07-29T06:32:21;10.48;;;1.73;;
44512;SDS011;30219;50.588;9.504;2022-07-29T06:34:47;8.35;;;2.03;;
44512;SDS011;30219;50.588;9.504;2022-07-29T06:37:12;4.93;;;1.90;;
44512;SDS011;30219;50.588;9.504;2022-07-29T06:39:39;4.13;;;1.25;;
44512;SDS011;30219;50.588;9.504;2022-07-29T06:42:05;8.02;;;1.75;;
44512;SDS011;30219;50.588;9.504;2022-07-29T06:44:31;8.57;;;1.70;;
44512;SDS011;30219;50.588;9.504;2022-07-29T06:46:58;10.00;;;2.00;;
44512;SDS011;30219;50.588;9.504;2022-07-29T06:49:25;6.40;;;1.95;;
44512;SDS011;30219;50.588;9.504;2022-07-29T06:51:51;6.05;;;2.03;;
44512;SDS011;30219;50.588;9.504;2022-07-29T06:54:17;9.75;;;2.05;;
44512;SDS011;30219;50.588;9.504;2022-07-29T06:56:42;11.77;;;1.85;;
44512;SDS011;30219;50.588;9.504;2022-07-29T06:59:09;8.82;;;2.53;;
44512;SDS011;30219;50.588;9.504;2022-07-29T07:01:36;7.47;;;1.80;;
44512;SDS011;30219;50.588;9.504;2022-07-29T07:04:02;11.13;;;2.05;;
44512;SDS011;30219;50.588;9.504;2022-07-29T07:06:28;5.50;;;1.73;;
44512;SDS011;30219;50.588;9.504;2022-07-29T07:08:53;8.73;;;2.13;;
44512;SDS011;30219;50.588;9.504;2022-07-29T07:11:19;8.55;;;2.78;;
44512;SDS011;30219;50.588;9.504;2022-07-29T07:13:45;6.13;;;1.73;;
44512;SDS011;30219;50.588;9.504;2022-07-29T07:16:11;5.70;;;1.75;;
44512;SDS011;30219;50.588;9.504;2022-07-29T07:18:36;4.20;;;1.80;;
44512;SDS011;30219;50.588;9.504;2022-07-29T07:21:02;7.55;;;2.30;;
44512;SDS011;30219;50.588;9.504;2022-07-29T07:23:30;7.80;;;1.92;;
44512;SDS011;30219;50.588;9.504;2022-07-29T07:25:55;9.63;;;1.92;;
44512;SDS011;30219;50.588;9.504;2022-07-29T07:28:21;10.00;;;2.55;;
44512;SDS011;30219;50.588;9.504;2022-07-29T07:30:46;7.13;;;2.05;;
44512;SDS011;30219;50.588;9.504;2022-07-29T07:33:12;18.85;;;3.03;;
44512;SDS011;30219;50.588;9.504;2022-07-29T07:35:38;7.97;;;2.67;;
44512;SDS011;30219;50.588;9.504;2022-07-29T07:38:04;11.30;;;2.67;;
44512;SDS011;30219;50.588;9.504;2022-07-29T07:40:31;15.38;;;3.47;;
44512;SDS011;30219;50.588;9.504;2022-07-29T07:42:56;9.95;;;2.53;;
44512;SDS011;30219;50.588;9.504;2022-07-29T07:45:22;10.80;;;2.47;;
44512;SDS011;30219;50.588;9.504;2022-07-29T07:47:48;9.65;;;2.47;;
44512;SDS011;30219;50.588;9.504;2022-07-29T07:50:14;16.65;;;2.47;;
44512;SDS011;30219;50.588;9.504;2022-07-29T07:52:49;8.43;;;2.30;;
44512;SDS011;30219;50.588;9.504;2022-07-29T07:55:22;16.95;;;2.90;;
44512;SDS011;30219;50.588;9.504;2022-07-29T07:57:48;11.05;;;2.30;;
44512;SDS011;30219;50.588;9.504;2022-07-29T08:00:14;8.75;;;2.45;;
44512;SDS011;30219;50.588;9.504;2022-07-29T08:02:41;6.32;;;2.38;;
44512;SDS011;30219;50.588;9.504;2022-07-29T08:05:07;9.23;;;2.72;;
44512;SDS011;30219;50.588;9.504;2022-07-29T08:07:34;9.68;;;2.10;;
44512;SDS011;30219;50.588;9.504;2022-07-29T08:10:00;10.38;;;2.70;;
44512;SDS011;30219;50.588;9.504;2022-07-29T08:12:26;11.20;;;2.95;;
44512;SDS011;30219;50.588;9.504;2022-07-29T08:14:51;7.07;;;2.42;;
44512;SDS011;30219;50.588;9.504;2022-07-29T08:17:17;14.85;;;2.75;;
44512;SDS011;30219;50.588;9.504;2022-07-29T08:19:43;21.15;;;3.58;;
44512;SDS011;30219;50.588;9.504;2022-07-29T08:22:08;7.35;;;2.50;;
44512;SDS011;30219;50.588;9.504;2022-07-29T08:24:34;7.78;;;2.90;;
44512;SDS011;30219;50.588;9.504;2022-07-29T08:27:09;10.10;;;3.10;;
44512;SDS011;30219;50.588;9.504;2022-07-29T08:29:35;10.48;;;2.58;;
44512;SDS011;30219;50.588;9.504;2022-07-29T08:32:02;8.63;;;2.17;;
44512;SDS011;30219;50.588;9.504;2022-07-29T08:34:28;10.10;;;2.58;;
44512;SDS011;30219;50.588;9.504;2022-07-29T08:36:54;11.23;;;2.55;;
44512;SDS011;30219;50.588;9.504;2022-07-29T08:39:21;7.85;;;2.85;;
44512;SDS011;30219;50.588;9.504;2022-07-29T08:41:47;10.98;;;2.78;;
44512;SDS011;30219;50.588;9.504;2022-07-29T08:44:14;13.52;;;2.53;;
44512;SDS011;30219;50.588;9.504;2022-07-29T08:46:41;8.77;;;2.45;;
44512;SDS011;30219;50.588;9.504;2022-07-29T08:49:07;10.25;;;3.05;;
44512;SDS011;30219;50.588;9.504;2022-07-29T08:51:33;10.93;;;2.33;;
44512;SDS011;30219;50.588;9.504;2022-07-29T08:54:00;7.45;;;2.70;;
44512;SDS011;30219;50.588;9.504;2022-07-29T08:56:27;10.65;;;2.67;;
44512;SDS011;30219;50.588;9.504;2022-07-29T08:58:53;8.50;;;2.65;;
44512;SDS011;30219;50.588;9.504;2022-07-29T09:01:23;6.53;;;2.35;;
44512;SDS011;30219;50.588;9.504;2022-07-29T09:03:50;8.77;;;2.55;;
44512;SDS011;30219;50.588;9.504;2022-07-29T09:06:20;7.68;;;2.42;;
44512;SDS011;30219;50.588;9.504;2022-07-29T09:08:47;7.65;;;2.17;;
44512;SDS011;30219;50.588;9.504;2022-07-29T09:11:13;8.73;;;2.70;;
44512;SDS011;30219;50.588;9.504;2022-07-29T09:13:39;8.07;;;2.13;;
44512;SDS011;30219;50.588;9.504;2022-07-29T09:16:06;8.43;;;2.22;;
44512;SDS011;30219;50.588;9.504;2022-07-29T09:18:42;11.70;;;2.72;;
44512;SDS011;30219;50.588;9.504;2022-07-29T09:21:10;7.85;;;2.88;;
44512;SDS011;30219;50.588;9.504;2022-07-29T09:24:10;9.02;;;2.45;;
44512;SDS011;30219;50.588;9.504;2022-07-29T09:26:41;9.15;;;2.28;;
44512;SDS011;30219;50.588;9.504;2022-07-29T09:29:12;10.15;;;2.45;;
44512;SDS011;30219;50.588;9.504;2022-07-29T09:31:42;8.00;;;2.08;;
44512;SDS011;30219;50.588;9.504;2022-07-29T09:34:10;8.18;;;2.05;;
44512;SDS011;30219;50.588;9.504;2022-07-29T09:36:43;7.57;;;2.03;;
44512;SDS011;30219;50.588;9.504;2022-07-29T09:39:14;7.55;;;2.30;;
44512;SDS011;30219;50.588;9.504;2022-07-29T09:41:47;6.40;;;1.92;;
44512;SDS011;30219;50.588;9.504;2022-07-29T09:44:20;5.65;;;2.05;;
44512;SDS011;30219;50.588;9.504;2022-07-29T09:49:33;7.13;;;1.90;;
44512;SDS011;30219;50.588;9.504;2022-07-29T09:52:03;7.70;;;2.22;;
44512;SDS011;30219;50.588;9.504;2022-07-29T09:54:33;8.30;;;2.33;;
44512;SDS011;30219;50.588;9.504;2022-07-29T09:57:04;7.75;;;2.10;;
44512;SDS011;30219;50.588;9.504;2022-07-29T09:59:31;8.35;;;2.08;;
44512;SDS011;30219;50.588;9.504;2022-07-29T10:01:57;8.93;;;2.40;;
44512;SDS011;30219;50.588;9.504;2022-07-29T10:04:23;8.15;;;1.95;;
44512;SDS011;30219;50.588;9.504;2022-07-29T10:06:58;5.72;;;2.17;;
44512;SDS011;30219;50.588;9.504;2022-07-29T10:09:25;9.38;;;2.17;;
44512;SDS011;30219;50.588;9.504;2022-07-29T10:12:07;7.55;;;2.08;;
44512;SDS011;30219;50.588;9.504;2022-07-29T10:14:40;6.53;;;2.08;;
44512;SDS011;30219;50.588;9.504;2022-07-29T10:17:07;9.82;;;2.10;;
44512;SDS011;30219;50.588;9.504;2022-07-29T10:19:35;7.40;;;2.17;;
44512;SDS011;30219;50.588;9.504;2022-07-29T10:22:06;8.15;;;2.00;;
44512;SDS011;30219;50.588;9.504;2022-07-29T10:24:33;4.63;;;1.85;;
44512;SDS011;30219;50.588;9.504;2022-07-29T10:27:00;7.05;;;1.67;;
44512;SDS011;30219;50.588;9.504;2022-07-29T10:29:27;5.15;;;1.92;;
44512;SDS011;30219;50.588;9.504;2022-07-29T10:34:30;8.60;;;2.30;;
44512;SDS011;30219;50.588;9.504;2022-07-29T10:37:31;11.88;;;2.30;;
44512;SDS011;30219;50.588;9.504;2022-07-29T10:42:53;8.35;;;2.35;;
44512;SDS011;30219;50.588;9.504;2022-07-29T10:45:20;5.35;;;1.95;;
44512;SDS011;30219;50.588;9.504;2022-07-29T10:47:47;5.95;;;1.65;;
44512;SDS011;30219;50.588;9.504;2022-07-29T10:50:13;3.97;;;1.95;;
44512;SDS011;30219;50.588;9.504;2022-07-29T10:55:32;6.45;;;1.80;;
44512;SDS011;30219;50.588;9.504;2022-07-29T11:00:48;4.72;;;1.70;;
44512;SDS011;30219;50.588;9.504;2022-07-29T11:06:13;6.22;;;2.00;;
44512;SDS011;30219;50.588;9.504;2022-07-29T11:08:39;9.48;;;2.63;;
44512;SDS011;30219;50.588;9.504;2022-07-29T11:16:12;5.82;;;2.42;;
44512;SDS011;30219;50.588;9.504;2022-07-29T11:21:35;6.50;;;1.95;;
44512;SDS011;30219;50.588;9.504;2022-07-29T11:24:12;6.07;;;1.65;;
44512;SDS011;30219;50.588;9.504;2022-07-29T11:27:05;8.55;;;2.08;;
44512;SDS011;30219;50.588;9.504;2022-07-29T11:29:38;6.90;;;2.17;;
44512;SDS011;30219;50.588;9.504;2022-07-29T11:32:12;3.50;;;1.63;;
44512;SDS011;30219;50.588;9.504;2022-07-29T11:34:41;5.15;;;1.85;;
44512;SDS011;30219;50.588;9.504;2022-07-29T11:47:26;10.32;;;2.33;;
44512;SDS011;30219;50.588;9.504;2022-07-29T11:49:53;5.90;;;1.90;;
44512;SDS011;30219;50.588;9.504;2022-07-29T11:52:21;8.02;;;2.20;;
44512;SDS011;30219;50.588;9.504;2022-07-29T11:54:47;6.03;;;2.45;;
44512;SDS011;30219;50.588;9.504;2022-07-29T11:57:19;4.88;;;1.83;;
44512;SDS011;30219;50.588;9.504;2022-07-29T11:59:46;9.10;;;2.50;;
44512;SDS011;30219;50.588;9.504;2022-07-29T12:02:12;5.88;;;2.20;;
44512;SDS011;30219;50.588;9.504;2022-07-29T12:04:48;11.65;;;2.42;;
44512;SDS011;30219;50.588;9.504;2022-07-29T12:07:15;3.90;;;2.00;;
44512;SDS011;30219;50.588;9.504;2022-07-29T12:09:49;4.50;;;2.25;;
44512;SDS011;30219;50.588;9.504;2022-07-29T12:12:16;5.68;;;2.20;;
44512;SDS011;30219;50.588;9.504;2022-07-29T12:14:43;3.95;;;2.10;;
44512;SDS011;30219;50.588;9.504;2022-07-29T12:19:53;5.55;;;2.30;;
44512;SDS011;30219;50.588;9.504;2022-07-29T12:22:26;4.07;;;1.90;;
44512;SDS011;30219;50.588;9.504;2022-07-29T12:25:03;3.97;;;2.03;;
44512;SDS011;30219;50.588;9.504;2022-07-29T12:27:34;5.72;;;1.88;;
44512;SDS011;30219;50.588;9.504;2022-07-29T12:30:05;6.30;;;1.95;;
44512;SDS011;30219;50.588;9.504;2022-07-29T12:35:13;7.50;;;2.55;;
44512;SDS011;30219;50.588;9.504;2022-07-29T12:37:41;6.10;;;2.30;;
44512;SDS011;30219;50.588;9.504;2022-07-29T12:40:09;9.65;;;2.92;;
44512;SDS011;30219;50.588;9.504;2022-07-29T12:42:36;4.95;;;1.80;;
44512;SDS011;30219;50.588;9.504;2022-07-29T12:45:02;8.00;;;2.58;;
44512;SDS011;30219;50.588;9.504;2022-07-29T12:47:29;4.30;;;1.83;;
44512;SDS011;30219;50.588;9.504;2022-07-29T12:50:11;7.00;;;2.28;;
44512;SDS011;30219;50.588;9.504;2022-07-29T12:52:40;5.72;;;2.08;;
44512;SDS011;30219;50.588;9.504;2022-07-29T12:55:06;6.63;;;2.25;;
44512;SDS011;30219;50.588;9.504;2022-07-29T12:57:32;4.93;;;2.55;;
44512;SDS011;30219;50.588;9.504;2022-07-29T13:00:10;5.10;;;2.00;;
44512;SDS011;30219;50.588;9.504;2022-07-29T13:02:38;6.82;;;2.20;;
44512;SDS011;30219;50.588;9.504;2022-07-29T13:05:05;6.05;;;2.30;;
44512;SDS011;30219;50.588;9.504;2022-07-29T13:07:33;4.32;;;2.22;;
44512;SDS011;30219;50.588;9.504;2022-07-29T13:10:11;4.55;;;2.15;;
44512;SDS011;30219;50.588;9.504;2022-07-29T13:15:29;4.90;;;2.30;;
44512;SDS011;30219;50.588;9.504;2022-07-29T13:17:55;4.38;;;2.10;;
44512;SDS011;30219;50.588;9.504;2022-07-29T13:20:23;3.38;;;1.73;;
44512;SDS011;30219;50.588;9.504;2022-07-29T13:22:52;3.85;;;2.10;;
44512;SDS011;30219;50.588;9.504;2022-07-29T13:25:28;4.47;;;2.30;;
44512;SDS011;30219;50.588;9.504;2022-07-29T13:27:56;6.78;;;2.17;;
44512;SDS011;30219;50.588;9.504;2022-07-29T13:30:23;5.63;;;1.90;;
44512;SDS011;30219;50.588;9.504;2022-07-29T13:32:49;6.25;;;1.88;;
44512;SDS011;30219;50.588;9.504;2022-07-29T13:35:15;4.80;;;2.10;;
44512;SDS011;30219;50.588;9.504;2022-07-29T13:37:41;4.68;;;2.13;;
44512;SDS011;30219;50.588;9.504;2022-07-29T13:40:07;4.82;;;1.90;;
44512;SDS011;30219;50.588;9.504;2022-07-29T13:42:34;6.43;;;2.63;;
44512;SDS011;30219;50.588;9.504;2022-07-29T13:45:00;4.43;;;2.00;;
44512;SDS011;30219;50.588;9.504;2022-07-29T13:47:26;3.28;;;1.70;;
44512;SDS011;30219;50.588;9.504;2022-07-29T13:49:52;6.43;;;2.00;;
44512;SDS011;30219;50.588;9.504;2022-07-29T13:52:18;6.53;;;1.70;;
44512;SDS011;30219;50.588;9.504;2022-07-29T13:54:45;4.75;;;2.10;;
44512;SDS011;30219;50.588;9.504;2022-07-29T13:57:11;4.40;;;1.90;;
44512;SDS011;30219;50.588;9.504;2022-07-29T13:59:37;6.18;;;2.13;;
44512;SDS011;30219;50.588;9.504;2022-07-29T14:02:07;3.92;;;1.90;;
44512;SDS011;30219;50.588;9.504;2022-07-29T14:04:34;8.02;;;2.10;;
44512;SDS011;30219;50.588;9.504;2022-07-29T14:07:00;3.65;;;1.80;;
44512;SDS011;30219;50.588;9.504;2022-07-29T14:09:26;4.90;;;2.08;;
44512;SDS011;30219;50.588;9.504;2022-07-29T14:11:51;4.97;;;1.90;;
44512;SDS011;30219;50.588;9.504;2022-07-29T14:14:18;5.80;;;1.95;;
44512;SDS011;30219;50.588;9.504;2022-07-29T14:16:44;3.08;;;1.98;;
44512;SDS011;30219;50.588;9.504;2022-07-29T14:19:09;6.85;;;2.00;;
44512;SDS011;30219;50.588;9.504;2022-07-29T14:21:35;6.47;;;2.17;;
44512;SDS011;30219;50.588;9.504;2022-07-29T14:24:02;4.88;;;2.03;;
44512;SDS011;30219;50.588;9.504;2022-07-29T14:26:28;4.50;;;1.92;;
44512;SDS011;30219;50.588;9.504;2022-07-29T14:28:53;3.40;;;1.90;;
44512;SDS011;30219;50.588;9.504;2022-07-29T14:31:19;8.55;;;2.33;;
44512;SDS011;30219;50.588;9.504;2022-07-29T14:33:44;3.80;;;1.98;;
44512;SDS011;30219;50.588;9.504;2022-07-29T14:36:10;7.05;;;2.47;;
44512;SDS011;30219;50.588;9.504;2022-07-29T14:38:36;5.45;;;1.75;;
44512;SDS011;30219;50.588;9.504;2022-07-29T14:41:02;4.28;;;1.70;;
44512;SDS011;30219;50.588;9.504;2022-07-29T14:43:28;5.80;;;2.17;;
44512;SDS011;30219;50.588;9.504;2022-07-29T14:45:54;3.88;;;2.10;;
44512;SDS011;30219;50.588;9.504;2022-07-29T14:48:19;5.35;;;2.10;;
44512;SDS011;30219;50.588;9.504;2022-07-29T14:50:45;3.22;;;1.75;;
44512;SDS011;30219;50.588;9.504;2022-07-29T14:53:11;5.47;;;2.10;;
44512;SDS011;30219;50.588;9.504;2022-07-29T14:55:39;2.88;;;1.77;;
44512;SDS011;30219;50.588;9.504;2022-07-29T14:58:05;3.80;;;1.80;;
44512;SDS011;30219;50.588;9.504;2022-07-29T15:00:31;6.57;;;1.85;;
44512;SDS011;30219;50.588;9.504;2022-07-29T15:02:58;5.82;;;1.90;;
44512;SDS011;30219;50.588;9.504;2022-07-29T15:05:25;5.80;;;2.30;;
44512;SDS011;30219;50.588;9.504;2022-07-29T15:07:51;5.65;;;1.75;;
44512;SDS011;30219;50.588;9.504;2022-07-29T15:10:16;4.82;;;1.67;;
44512;SDS011;30219;50.588;9.504;2022-07-29T15:12:42;7.03;;;1.60;;
44512;SDS011;30219;50.588;9.504;2022-07-29T15:15:08;4.38;;;2.13;;
44512;SDS011;30219;50.588;9.504;2022-07-29T15:17:33;3.40;;;1.80;;
44512;SDS011;30219;50.588;9.504;2022-07-29T15:19:59;3.25;;;1.60;;
44512;SDS011;30219;50.588;9.504;2022-07-29T15:22:25;5.20;;;1.80;;
44512;SDS011;30219;50.588;9.504;2022-07-29T15:24:50;3.95;;;1.80;;
44512;SDS011;30219;50.588;9.504;2022-07-29T15:27:16;2.65;;;1.63;;
44512;SDS011;30219;50.588;9.504;2022-07-29T15:29:42;3.17;;;1.50;;
44512;SDS011;30219;50.588;9.504;2022-07-29T15:32:08;5.72;;;1.90;;
44512;SDS011;30219;50.588;9.504;2022-07-29T15:34:34;4.57;;;1.80;;
44512;SDS011;30219;50.588;9.504;2022-07-29T15:37:01;5.75;;;2.10;;
44512;SDS011;30219;50.588;9.504;2022-07-29T15:39:26;6.30;;;2.00;;
44512;SDS011;30219;50.588;9.504;2022-07-29T15:41:52;4.85;;;1.70;;
44512;SDS011;30219;50.588;9.504;2022-07-29T15:44:18;5.78;;;1.83;;
44512;SDS011;30219;50.588;9.504;2022-07-29T15:46:44;5.28;;;2.15;;